createdAt,value
2018-09-12T00:00:19.881Z,17.70
2018-09-12T00:02:48.724Z,17.60
2018-09-12T00:05:17.659Z,17.50
2018-09-12T00:07:46.563Z,17.50
2018-09-12T00:10:15.391Z,17.30
2018-09-12T00:12:44.227Z,17.20
2018-09-12T00:15:13.207Z,17.10
2018-09-12T00:17:42.085Z,17.00
2018-09-12T00:20:10.952Z,16.90
2018-09-12T00:22:39.932Z,16.90
2018-09-12T00:25:08.799Z,16.80
2018-09-12T00:27:37.633Z,16.90
2018-09-12T00:30:06.523Z,16.90
2018-09-12T00:32:35.355Z,17.00
2018-09-12T00:35:04.192Z,16.90
2018-09-12T00:37:33.086Z,16.90
2018-09-12T00:40:01.976Z,16.80
2018-09-12T00:42:30.823Z,16.70
2018-09-12T00:44:59.817Z,16.70
2018-09-12T00:47:28.716Z,16.60
2018-09-12T00:49:57.544Z,16.60
2018-09-12T00:52:26.422Z,16.50
2018-09-12T00:54:55.247Z,16.50
2018-09-12T00:57:24.117Z,16.40
2018-09-12T00:59:53.016Z,16.30
2018-09-12T01:02:21.868Z,16.20
2018-09-12T01:04:50.703Z,16.20
2018-09-12T01:07:19.627Z,16.10
2018-09-12T01:09:48.449Z,16.10
2018-09-12T01:12:17.316Z,16.10
2018-09-12T01:14:46.212Z,16.10
2018-09-12T01:17:15.059Z,16.10
2018-09-12T01:19:45.512Z,16.10
2018-09-12T01:22:14.509Z,16.10
2018-09-12T01:24:43.370Z,16.10
2018-09-12T01:27:12.314Z,16.10
2018-09-12T01:29:41.201Z,16.10
2018-09-12T01:32:10.028Z,16.10
2018-09-12T01:34:38.879Z,16.10
2018-09-12T01:37:07.803Z,16.10
2018-09-12T01:39:36.636Z,16.20
2018-09-12T01:42:05.588Z,16.20
2018-09-12T01:44:34.522Z,16.20
2018-09-12T01:47:03.380Z,16.30
2018-09-12T01:49:32.255Z,16.20
2018-09-12T01:52:01.137Z,16.20
2018-09-12T01:54:29.971Z,16.20
2018-09-12T01:56:58.868Z,16.20
2018-09-12T01:59:27.811Z,16.20
2018-09-12T02:01:56.643Z,16.30
2018-09-12T02:04:25.496Z,16.20
2018-09-12T02:06:54.385Z,16.30
2018-09-12T02:09:23.248Z,16.30
2018-09-12T02:11:52.071Z,16.30
2018-09-12T02:14:21.009Z,16.30
2018-09-12T02:16:49.892Z,16.20
2018-09-12T02:19:18.736Z,16.20
2018-09-12T02:21:47.706Z,16.10
2018-09-12T02:24:16.605Z,16.00
2018-09-12T02:26:45.613Z,15.90
2018-09-12T02:29:14.616Z,15.90
2018-09-12T02:31:43.472Z,15.80
2018-09-12T02:34:12.357Z,15.80
2018-09-12T02:36:41.250Z,15.80
2018-09-12T02:39:10.173Z,15.70
2018-09-12T02:41:39.027Z,15.70
2018-09-12T02:44:07.919Z,15.60
2018-09-12T02:46:36.797Z,15.60
2018-09-12T02:49:05.657Z,15.60
2018-09-12T02:51:34.524Z,15.60
2018-09-12T02:54:03.358Z,15.50
2018-09-12T02:56:32.194Z,15.50
2018-09-12T02:59:01.088Z,15.50
2018-09-12T03:01:29.923Z,15.50
2018-09-12T03:03:58.768Z,15.50
2018-09-12T03:06:27.648Z,15.50
2018-09-12T03:08:56.495Z,15.50
2018-09-12T03:11:25.347Z,15.50
2018-09-12T03:13:54.225Z,15.50
2018-09-12T03:16:23.117Z,15.50
2018-09-12T03:18:51.961Z,15.40
2018-09-12T03:21:20.840Z,15.50
2018-09-12T03:23:49.692Z,15.50
2018-09-12T03:26:18.534Z,15.50
2018-09-12T03:28:47.417Z,15.50
2018-09-12T03:31:16.416Z,15.50
2018-09-12T03:33:45.253Z,15.60
2018-09-12T03:36:14.219Z,15.60
2018-09-12T03:38:43.086Z,15.60
2018-09-12T03:41:11.929Z,15.60
2018-09-12T03:43:40.848Z,15.60
2018-09-12T03:46:09.712Z,15.60
2018-09-12T03:48:38.563Z,15.60
2018-09-12T03:51:07.461Z,15.60
2018-09-12T03:53:36.354Z,15.50
2018-09-12T03:56:05.172Z,15.50
2018-09-12T03:58:34.142Z,15.50
2018-09-12T04:01:02.992Z,15.40
2018-09-12T04:03:31.893Z,15.40
2018-09-12T04:06:00.793Z,15.40
2018-09-12T04:08:29.620Z,15.40
2018-09-12T04:10:58.474Z,15.30
2018-09-12T04:13:27.499Z,15.20
2018-09-12T04:15:56.362Z,15.20
2018-09-12T04:18:25.208Z,15.20
2018-09-12T04:20:54.099Z,15.10
2018-09-12T04:23:22.975Z,15.10
2018-09-12T04:25:51.820Z,15.20
2018-09-12T04:28:21.928Z,15.20
2018-09-12T04:30:51.970Z,15.30
2018-09-12T04:33:20.858Z,15.40
2018-09-12T04:35:49.900Z,15.40
2018-09-12T04:38:18.882Z,15.50
2018-09-12T04:40:47.717Z,15.50
2018-09-12T04:43:16.975Z,15.60
2018-09-12T04:45:45.912Z,15.60
2018-09-12T04:48:15.044Z,15.60
2018-09-12T04:50:44.143Z,15.60
2018-09-12T04:53:13.013Z,15.60
2018-09-12T04:55:42.117Z,15.70
2018-09-12T04:58:11.012Z,15.80
2018-09-12T05:00:39.945Z,15.90
2018-09-12T05:03:08.833Z,16.10
2018-09-12T05:05:37.820Z,16.30
2018-09-12T05:08:07.524Z,16.40
2018-09-12T05:10:36.392Z,16.60
2018-09-12T05:13:05.333Z,16.60
2018-09-12T05:15:34.186Z,16.60
2018-09-12T05:18:03.060Z,16.60
2018-09-12T05:20:31.990Z,16.50
2018-09-12T05:23:00.951Z,16.50
2018-09-12T05:25:30.543Z,16.50
2018-09-12T05:27:59.445Z,16.40
2018-09-12T05:30:28.388Z,16.40
2018-09-12T05:33:10.010Z,16.40
2018-09-12T05:35:38.897Z,16.40
2018-09-12T05:38:07.821Z,16.50
2018-09-12T05:40:36.697Z,16.60
2018-09-12T05:43:05.582Z,16.70
2018-09-12T05:45:34.536Z,16.90
2018-09-12T05:48:04.321Z,17.20
2018-09-12T05:50:33.204Z,17.50
2018-09-12T05:53:02.141Z,17.70
2018-09-12T05:55:31.021Z,17.90
2018-09-12T05:57:59.902Z,18.10
2018-09-12T06:00:29.001Z,18.10
2018-09-12T06:02:57.891Z,18.10
2018-09-12T06:05:26.846Z,18.10
2018-09-12T06:07:56.618Z,18.10
2018-09-12T06:10:25.868Z,18.10
2018-09-12T06:12:54.990Z,18.00
2018-09-12T06:15:23.940Z,18.00
2018-09-12T06:17:53.030Z,18.10
2018-09-12T06:20:21.893Z,18.10
2018-09-12T06:22:50.975Z,18.20
2018-09-12T06:25:19.901Z,18.40
2018-09-12T06:27:48.785Z,18.70
2018-09-12T06:30:17.771Z,18.90
2018-09-12T06:32:46.646Z,19.10
2018-09-12T06:35:15.556Z,19.20
2018-09-12T06:37:44.488Z,19.30
2018-09-12T06:40:13.388Z,19.30
2018-09-12T06:42:42.277Z,19.30
2018-09-12T06:45:11.234Z,19.30
2018-09-12T06:47:40.162Z,19.40
2018-09-12T06:50:09.131Z,19.60
2018-09-12T06:52:38.038Z,19.80
2018-09-12T06:55:06.937Z,20.00
2018-09-12T06:57:35.793Z,20.10
2018-09-12T07:00:04.875Z,20.30
2018-09-12T07:02:33.755Z,20.50
2018-09-12T07:05:02.590Z,20.60
2018-09-12T07:07:31.612Z,20.80
2018-09-12T07:10:00.444Z,20.90
2018-09-12T07:12:29.316Z,21.10
2018-09-12T07:14:58.229Z,21.30
2018-09-12T07:17:27.091Z,21.40
2018-09-12T07:19:55.948Z,21.70
2018-09-12T07:22:24.857Z,21.90
2018-09-12T07:24:53.699Z,22.10
2018-09-12T07:27:22.542Z,22.30
2018-09-12T07:29:51.432Z,22.50
2018-09-12T07:32:20.259Z,22.70
2018-09-12T07:34:49.076Z,22.80
2018-09-12T07:37:18.008Z,22.90
2018-09-12T07:39:46.882Z,23.00
2018-09-12T07:42:15.733Z,23.20
2018-09-12T07:44:44.598Z,23.20
2018-09-12T07:47:13.472Z,23.20
2018-09-12T07:49:42.307Z,23.20
2018-09-12T07:52:11.232Z,23.20
2018-09-12T07:54:40.176Z,23.10
2018-09-12T07:57:09.023Z,23.10
2018-09-12T07:59:38.000Z,23.00
2018-09-12T08:02:06.839Z,23.00
2018-09-12T08:04:36.257Z,22.90
2018-09-12T08:07:05.155Z,22.80
2018-09-12T08:09:34.004Z,22.80
2018-09-12T08:12:02.855Z,22.80
2018-09-12T08:14:31.772Z,22.70
2018-09-12T08:17:00.635Z,22.70
2018-09-12T08:19:29.492Z,22.60
2018-09-12T08:21:58.500Z,22.60
2018-09-12T08:24:27.379Z,22.70
2018-09-12T08:26:56.234Z,22.70
2018-09-12T08:29:25.132Z,22.80
2018-09-12T08:31:54.577Z,23.00
2018-09-12T08:34:23.403Z,23.10
2018-09-12T08:36:52.317Z,23.10
2018-09-12T08:39:21.144Z,23.20
2018-09-12T08:41:49.972Z,23.20
2018-09-12T08:44:18.861Z,23.20
2018-09-12T08:46:47.740Z,23.30
2018-09-12T08:49:16.629Z,23.30
2018-09-12T08:51:45.502Z,23.40
2018-09-12T08:54:14.344Z,23.50
2018-09-12T08:56:43.275Z,23.60
2018-09-12T08:59:12.180Z,23.60
2018-09-12T09:01:41.118Z,23.70
2018-09-12T09:04:10.014Z,23.80
2018-09-12T09:06:38.901Z,23.90
2018-09-12T09:09:10.080Z,23.90
2018-09-12T09:11:39.097Z,24.00
2018-09-12T09:14:08.064Z,24.10
2018-09-12T09:16:37.745Z,24.20
2018-09-12T09:19:06.633Z,24.20
2018-09-12T09:21:35.508Z,24.30
2018-09-12T09:24:04.343Z,24.40
2018-09-12T09:26:33.347Z,24.40
2018-09-12T09:29:02.204Z,24.50
2018-09-12T09:31:31.077Z,24.50
2018-09-12T09:34:00.088Z,24.60
2018-09-12T09:36:28.924Z,24.70
2018-09-12T09:38:57.755Z,24.80
2018-09-12T09:41:26.648Z,24.80
2018-09-12T09:43:55.520Z,24.90
2018-09-12T09:46:24.373Z,25.00
2018-09-12T09:48:53.271Z,25.10
2018-09-12T09:51:22.119Z,25.20
2018-09-12T09:53:50.974Z,25.30
2018-09-12T09:56:19.911Z,25.30
2018-09-12T09:58:49.030Z,25.40
2018-09-12T10:01:23.099Z,25.50
2018-09-12T10:03:57.052Z,25.50
2018-09-12T10:06:32.880Z,25.50
2018-09-12T10:09:05.979Z,25.60
2018-09-12T10:11:34.863Z,25.70
2018-09-12T10:14:03.697Z,25.80
2018-09-12T10:16:32.540Z,25.90
2018-09-12T10:19:01.429Z,25.90
2018-09-12T10:21:30.269Z,25.90
2018-09-12T10:23:59.112Z,25.90
2018-09-12T10:26:27.995Z,26.00
2018-09-12T10:28:56.844Z,26.00
2018-09-12T10:31:25.746Z,26.00
2018-09-12T10:33:54.626Z,25.90
2018-09-12T10:36:23.481Z,25.90
2018-09-12T10:38:52.409Z,25.90
2018-09-12T10:41:21.385Z,25.90
2018-09-12T10:43:50.419Z,26.00
2018-09-12T10:46:19.253Z,26.00
2018-09-12T10:48:48.234Z,26.00
2018-09-12T10:51:17.094Z,26.10
2018-09-12T10:53:45.970Z,26.20
2018-09-12T10:56:14.985Z,26.30
2018-09-12T10:58:43.843Z,26.30
2018-09-12T11:01:12.765Z,26.30
2018-09-12T11:03:41.679Z,26.30
2018-09-12T11:06:10.512Z,26.30
2018-09-12T11:08:39.354Z,26.30
2018-09-12T11:11:08.252Z,26.30
2018-09-12T11:13:37.161Z,26.40
2018-09-12T11:16:06.008Z,26.50
2018-09-12T11:18:34.859Z,26.60
2018-09-12T11:21:03.712Z,26.60
2018-09-12T11:23:32.554Z,26.60
2018-09-12T11:26:01.428Z,26.60
2018-09-12T11:28:30.294Z,26.60
2018-09-12T11:30:59.126Z,26.70
2018-09-12T11:33:28.003Z,26.80
2018-09-12T11:35:56.897Z,26.80
2018-09-12T11:38:25.733Z,26.80
2018-09-12T11:40:54.840Z,26.70
2018-09-12T11:43:23.709Z,26.70
2018-09-12T11:45:52.617Z,26.70
2018-09-12T11:48:21.531Z,26.80
2018-09-12T11:50:50.389Z,26.90
2018-09-12T11:53:19.284Z,26.90
2018-09-12T11:55:48.294Z,26.90
2018-09-12T11:58:17.144Z,26.90
2018-09-12T12:00:45.981Z,26.90
2018-09-12T12:03:14.901Z,26.90
2018-09-12T12:05:43.799Z,26.90
2018-09-12T12:08:12.623Z,27.00
2018-09-12T12:10:41.623Z,27.00
2018-09-12T12:13:10.459Z,27.00
2018-09-12T12:15:39.352Z,27.10
2018-09-12T12:18:08.294Z,27.10
2018-09-12T12:20:37.161Z,27.10
2018-09-12T12:23:06.139Z,27.10
2018-09-12T12:25:35.037Z,27.10
2018-09-12T12:28:03.877Z,27.10
2018-09-12T12:30:32.758Z,27.10
2018-09-12T12:33:01.628Z,27.20
2018-09-12T12:35:30.602Z,27.20
2018-09-12T12:37:59.368Z,27.20
2018-09-12T12:40:28.359Z,27.20
2018-09-12T12:42:57.199Z,27.20
2018-09-12T12:45:26.025Z,27.20
2018-09-12T12:47:57.561Z,27.30
2018-09-12T12:50:26.393Z,27.30
2018-09-12T12:52:55.253Z,27.40
2018-09-12T12:55:24.163Z,27.40
2018-09-12T12:57:53.006Z,27.40
2018-09-12T13:00:21.840Z,27.40
2018-09-12T13:02:50.732Z,27.40
2018-09-12T13:05:19.578Z,27.40
2018-09-12T13:07:48.416Z,27.40
2018-09-12T13:10:17.433Z,27.40
2018-09-12T13:12:46.253Z,27.40
2018-09-12T13:15:15.122Z,27.40
2018-09-12T13:17:44.811Z,27.40
2018-09-12T13:20:13.626Z,27.50
2018-09-12T13:22:42.479Z,27.50
2018-09-12T13:25:11.388Z,27.40
2018-09-12T13:27:40.369Z,27.40
2018-09-12T13:30:09.194Z,27.40
2018-09-12T13:32:38.167Z,27.40
2018-09-12T13:35:07.049Z,27.30
2018-09-12T13:37:36.057Z,27.30
2018-09-12T13:40:05.203Z,27.30
2018-09-12T13:42:34.045Z,27.30
2018-09-12T13:45:02.879Z,27.40
2018-09-12T13:47:31.751Z,27.40
2018-09-12T13:50:00.607Z,27.40
2018-09-12T13:52:29.422Z,27.40
2018-09-12T13:54:58.387Z,27.40
2018-09-12T13:57:27.231Z,27.30
2018-09-12T13:59:56.095Z,27.30
2018-09-12T14:02:25.016Z,27.20
2018-09-12T14:04:53.932Z,27.20
2018-09-12T14:07:22.774Z,27.30
2018-09-12T14:09:51.780Z,27.30
2018-09-12T14:12:20.632Z,27.30
2018-09-12T14:14:49.511Z,27.30
2018-09-12T14:17:18.787Z,27.20
2018-09-12T14:19:47.690Z,27.20
2018-09-12T14:22:16.525Z,27.20
2018-09-12T14:24:45.504Z,27.20
2018-09-12T14:27:14.366Z,27.20
2018-09-12T14:29:43.270Z,27.20
2018-09-12T14:32:12.222Z,27.20
2018-09-12T14:34:41.224Z,27.10
2018-09-12T14:37:10.144Z,27.10
2018-09-12T14:39:39.269Z,27.10
2018-09-12T14:42:08.206Z,27.10
2018-09-12T14:44:37.037Z,27.10
2018-09-12T14:47:06.001Z,27.00
2018-09-12T14:49:35.643Z,27.00
2018-09-12T14:52:04.487Z,27.00
2018-09-12T14:54:33.476Z,27.00
2018-09-12T14:57:02.403Z,27.10
2018-09-12T14:59:31.557Z,27.00
2018-09-12T15:02:00.384Z,26.90
2018-09-12T15:04:29.241Z,26.90
2018-09-12T15:06:58.160Z,26.90
2018-09-12T15:09:26.996Z,26.80
2018-09-12T15:11:56.942Z,26.80
2018-09-12T15:14:25.783Z,26.70
2018-09-12T15:16:55.272Z,26.80
2018-09-12T15:19:24.122Z,26.70
2018-09-12T15:21:53.070Z,26.70
2018-09-12T15:24:22.842Z,26.70
2018-09-12T15:26:51.718Z,26.60
2018-09-12T15:29:20.756Z,26.70
2018-09-12T15:31:50.041Z,26.70
2018-09-12T15:34:18.955Z,26.70
2018-09-12T15:36:47.919Z,26.60
2018-09-12T15:39:16.952Z,26.50
2018-09-12T15:41:45.834Z,26.40
2018-09-12T15:44:14.719Z,26.20
2018-09-12T15:46:43.650Z,26.00
2018-09-12T15:49:12.496Z,25.90
2018-09-12T15:51:41.345Z,25.70
2018-09-12T15:54:10.276Z,25.70
2018-09-12T15:56:39.126Z,25.60
2018-09-12T15:59:08.029Z,25.50
2018-09-12T16:01:36.891Z,25.40
2018-09-12T16:04:05.897Z,25.30
2018-09-12T16:06:34.765Z,25.10
2018-09-12T16:09:04.379Z,25.00
2018-09-12T16:11:33.237Z,24.90
2018-09-12T16:14:02.234Z,24.80
2018-09-12T16:16:31.123Z,24.70
2018-09-12T16:18:59.992Z,24.60
2018-09-12T16:21:28.849Z,24.50
2018-09-12T16:24:00.263Z,24.40
2018-09-12T16:26:29.315Z,24.30
2018-09-12T16:28:58.151Z,24.20
2018-09-12T16:31:27.118Z,24.10
2018-09-12T16:33:56.139Z,24.00
2018-09-12T16:36:25.391Z,23.90
2018-09-12T16:38:54.233Z,23.70
2018-09-12T16:41:23.108Z,23.60
2018-09-12T16:43:52.080Z,23.50
2018-09-12T16:46:20.927Z,23.30
2018-09-12T16:48:49.973Z,23.20
2018-09-12T16:51:19.006Z,23.10
2018-09-12T16:53:47.868Z,23.00
2018-09-12T16:56:16.915Z,22.90
2018-09-12T16:58:50.799Z,22.80
2018-09-12T17:01:22.511Z,22.70
2018-09-12T17:03:51.363Z,22.50
2018-09-12T17:06:20.266Z,22.30
2018-09-12T17:08:49.208Z,22.20
2018-09-12T17:11:18.164Z,22.10
2018-09-12T17:13:47.116Z,22.10
2018-09-12T17:16:15.959Z,21.90
2018-09-12T17:18:44.906Z,21.80
2018-09-12T17:21:15.098Z,21.60
2018-09-12T17:23:44.048Z,21.50
2018-09-12T17:26:12.942Z,21.40
2018-09-12T17:28:41.881Z,21.40
2018-09-12T17:31:10.721Z,21.30
2018-09-12T17:33:39.664Z,21.20
2018-09-12T17:36:08.499Z,21.10
2018-09-12T17:38:37.377Z,21.00
2018-09-12T17:41:06.289Z,20.90
2018-09-12T17:43:35.199Z,20.80
2018-09-12T17:46:04.057Z,20.80
2018-09-12T17:48:33.400Z,20.70
2018-09-12T17:51:03.228Z,20.60
2018-09-12T17:53:32.293Z,20.50
2018-09-12T17:56:02.649Z,20.40
2018-09-12T17:58:36.792Z,20.30
2018-09-12T18:01:05.857Z,20.20
2018-09-12T18:03:34.870Z,20.10
2018-09-12T18:06:03.852Z,20.00
2018-09-12T18:08:32.708Z,20.00
2018-09-12T18:11:01.935Z,19.90
2018-09-12T18:13:43.841Z,19.80
2018-09-12T18:16:13.424Z,19.70
2018-09-12T18:18:42.410Z,19.60
2018-09-12T18:21:11.361Z,19.50
2018-09-12T18:23:40.644Z,19.50
2018-09-12T18:26:09.553Z,19.40
2018-09-12T18:28:38.544Z,19.40
2018-09-12T18:31:07.507Z,19.30
2018-09-12T18:33:36.328Z,19.20
2018-09-12T18:36:05.209Z,19.20
2018-09-12T18:38:34.312Z,19.10
2018-09-12T18:41:03.552Z,19.10
2018-09-12T18:43:32.525Z,19.00
2018-09-12T18:46:07.550Z,19.00
2018-09-12T18:51:52.340Z,18.90
2018-09-12T18:57:11.535Z,18.70
2018-09-12T18:59:42.144Z,18.70
2018-09-12T19:02:11.692Z,18.60
2018-09-12T19:04:40.990Z,18.60
2018-09-12T19:07:11.624Z,18.50
2018-09-12T19:09:42.600Z,18.50
2018-09-12T19:12:12.478Z,18.40
2018-09-12T19:14:42.374Z,18.40
2018-09-12T19:17:12.880Z,18.30
2018-09-12T19:19:48.280Z,18.30
2018-09-12T19:22:21.185Z,18.20
2018-09-12T19:25:11.268Z,18.10
2018-09-12T19:27:46.351Z,18.10
2018-09-12T19:30:17.278Z,18.00
2018-09-12T19:32:46.947Z,18.00
2018-09-12T19:35:16.797Z,17.90
2018-09-12T19:37:45.885Z,17.90
2018-09-12T19:40:14.913Z,17.90
2018-09-12T19:42:43.939Z,17.80
2018-09-12T19:45:12.890Z,17.80
2018-09-12T19:47:41.929Z,17.70
2018-09-12T19:50:10.842Z,17.60
2018-09-12T19:52:39.884Z,17.60
2018-09-12T19:55:08.881Z,17.60
2018-09-12T19:57:37.809Z,17.60
2018-09-12T20:00:12.336Z,17.50
2018-09-12T20:02:41.266Z,17.50
2018-09-12T20:05:10.182Z,17.50
2018-09-12T20:07:39.155Z,17.40
2018-09-12T20:10:08.145Z,17.30
2018-09-12T20:12:37.157Z,17.30
2018-09-12T20:15:06.133Z,17.30
2018-09-12T20:17:35.106Z,17.30
2018-09-12T20:20:04.018Z,17.40
2018-09-12T20:22:33.499Z,17.40
2018-09-12T20:25:03.323Z,17.40
2018-09-12T20:27:33.594Z,17.40
2018-09-12T20:30:03.096Z,17.40
2018-09-12T20:32:32.284Z,17.40
2018-09-12T20:35:01.373Z,17.30
2018-09-12T20:37:30.451Z,17.20
2018-09-12T20:39:59.402Z,17.10
2018-09-12T20:42:28.610Z,17.00
2018-09-12T20:44:57.636Z,16.90
2018-09-12T20:47:26.695Z,16.80
2018-09-12T20:49:55.984Z,16.80
2018-09-12T20:52:24.872Z,16.80
2018-09-12T20:54:54.191Z,16.70
2018-09-12T20:57:23.536Z,16.70
2018-09-12T20:59:52.928Z,16.70
2018-09-12T21:02:22.277Z,16.70
2018-09-12T21:04:51.405Z,16.70
2018-09-12T21:07:21.012Z,16.70
2018-09-12T21:09:50.851Z,16.70
2018-09-12T21:12:20.261Z,16.70
2018-09-12T21:14:50.602Z,16.80
2018-09-12T21:17:19.948Z,16.80
2018-09-12T21:19:49.294Z,16.80
2018-09-12T21:22:18.674Z,16.70
2018-09-12T21:24:51.499Z,16.70
2018-09-12T21:27:20.840Z,16.60
2018-09-12T21:29:50.114Z,16.60
2018-09-12T21:32:26.199Z,16.50
2018-09-12T21:34:57.437Z,16.50
2018-09-12T21:37:27.679Z,16.50
2018-09-12T21:39:57.600Z,16.60
2018-09-12T21:42:27.023Z,16.70
2018-09-12T21:44:56.311Z,16.80
2018-09-12T21:47:25.632Z,17.10
2018-09-12T21:49:54.741Z,17.30
2018-09-12T21:52:23.811Z,17.60
2018-09-12T21:54:52.851Z,17.90
2018-09-12T21:57:21.931Z,18.10
2018-09-12T21:59:50.825Z,18.10
2018-09-12T22:02:19.775Z,18.20
2018-09-12T22:04:48.668Z,18.30
2018-09-12T22:07:17.557Z,18.40
2018-09-12T22:09:46.522Z,18.40
2018-09-12T22:12:15.403Z,18.20
2018-09-12T22:14:44.328Z,18.20
2018-09-12T22:17:13.228Z,18.20
2018-09-12T22:19:42.106Z,18.20
2018-09-12T22:22:10.970Z,18.20
2018-09-12T22:24:39.942Z,18.30
2018-09-12T22:27:08.812Z,18.20
2018-09-12T22:29:37.686Z,18.30
2018-09-12T22:32:06.674Z,18.20
2018-09-12T22:34:35.558Z,18.20
2018-09-12T22:37:04.481Z,18.10
2018-09-12T22:39:33.472Z,18.00
2018-09-12T22:42:02.334Z,18.00
2018-09-12T22:44:31.202Z,18.00
2018-09-12T22:47:00.152Z,17.90
2018-09-12T22:49:29.036Z,17.80
2018-09-12T22:51:58.268Z,17.90
2018-09-12T22:54:27.206Z,17.80
2018-09-12T22:56:56.089Z,17.80
2018-09-12T22:59:24.951Z,17.80
2018-09-12T23:01:53.874Z,17.80
2018-09-12T23:04:22.852Z,17.70
2018-09-12T23:06:51.760Z,17.70
2018-09-12T23:09:20.678Z,17.60
2018-09-12T23:11:49.640Z,17.50
2018-09-12T23:14:18.523Z,17.50
2018-09-12T23:16:47.451Z,17.50
2018-09-12T23:19:16.337Z,17.40
2018-09-12T23:21:45.213Z,17.50
2018-09-12T23:24:14.124Z,17.50
2018-09-12T23:26:43.004Z,17.50
2018-09-12T23:29:11.868Z,17.50
2018-09-12T23:31:40.773Z,17.60
2018-09-12T23:34:09.649Z,17.50
2018-09-12T23:36:38.491Z,17.50
2018-09-12T23:39:10.371Z,17.60
2018-09-12T23:41:39.264Z,17.60
2018-09-12T23:44:08.325Z,17.60
2018-09-12T23:46:37.330Z,17.50
2018-09-12T23:49:06.892Z,17.50
2018-09-12T23:51:35.773Z,17.40
2018-09-12T23:54:04.817Z,17.30
2018-09-12T23:56:33.682Z,17.20
2018-09-12T23:59:02.545Z,17.10
